createdAt,value
2022-08-25T00:01:23.161Z,18.81
2022-08-25T00:03:55.202Z,18.75
2022-08-25T00:06:23.624Z,18.63
2022-08-25T00:08:50.804Z,18.54
2022-08-25T00:11:30.237Z,18.53
2022-08-25T00:14:01.039Z,18.54
2022-08-25T00:16:28.943Z,18.52
2022-08-25T00:18:58.249Z,18.54
2022-08-25T00:21:25.495Z,18.60
2022-08-25T00:23:52.375Z,18.56
2022-08-25T00:26:19.991Z,18.50
2022-08-25T00:28:47.103Z,18.54
2022-08-25T00:31:20.220Z,18.47
2022-08-25T00:33:47.991Z,18.55
2022-08-25T00:36:15.753Z,18.48
2022-08-25T00:38:45.314Z,18.45
2022-08-25T00:41:15.236Z,18.50
2022-08-25T00:43:41.742Z,18.46
2022-08-25T00:46:18.656Z,18.43
2022-08-25T00:48:50.774Z,18.42
2022-08-25T00:51:25.511Z,18.43
2022-08-25T00:53:52.200Z,18.32
2022-08-25T00:56:19.185Z,18.30
2022-08-25T00:58:48.655Z,18.22
2022-08-25T01:01:15.342Z,18.17
2022-08-25T01:03:42.058Z,18.24
2022-08-25T01:06:10.298Z,18.21
2022-08-25T01:08:37.025Z,18.19
2022-08-25T01:11:10.100Z,18.22
2022-08-25T01:13:41.474Z,18.16
2022-08-25T01:16:08.749Z,18.16
2022-08-25T01:18:48.686Z,18.04
2022-08-25T01:21:15.746Z,18.13
2022-08-25T01:23:42.373Z,17.96
2022-08-25T01:26:14.193Z,17.98
2022-08-25T01:29:02.639Z,17.98
2022-08-25T01:31:30.181Z,18.01
2022-08-25T01:33:57.511Z,17.98
2022-08-25T01:36:25.726Z,18.04
2022-08-25T01:38:53.701Z,18.02
2022-08-25T01:41:34.614Z,18.01
2022-08-25T01:44:05.923Z,18.08
2022-08-25T01:46:35.501Z,18.05
2022-08-25T01:49:06.686Z,17.98
2022-08-25T01:51:39.663Z,17.97
2022-08-25T01:54:06.235Z,18.05
2022-08-25T01:56:32.910Z,18.05
2022-08-25T01:58:59.607Z,18.00
2022-08-25T02:01:26.505Z,17.96
2022-08-25T02:03:55.451Z,17.90
2022-08-25T02:06:29.890Z,17.86
2022-08-25T02:09:01.084Z,17.79
2022-08-25T02:11:27.772Z,17.78
2022-08-25T02:13:55.556Z,17.91
2022-08-25T02:16:29.114Z,17.80
2022-08-25T02:18:56.391Z,17.73
2022-08-25T02:21:23.195Z,17.74
2022-08-25T02:23:49.768Z,17.76
2022-08-25T02:26:19.039Z,17.79
2022-08-25T02:28:47.319Z,17.82
2022-08-25T02:31:14.962Z,17.80
2022-08-25T02:33:42.018Z,17.68
2022-08-25T02:36:09.490Z,17.76
2022-08-25T02:38:37.109Z,17.66
2022-08-25T02:41:12.896Z,17.65
2022-08-25T02:43:41.550Z,17.58
2022-08-25T02:46:09.969Z,17.43
2022-08-25T02:48:37.912Z,17.46
2022-08-25T02:51:08.869Z,17.48
2022-08-25T02:53:39.771Z,17.50
2022-08-25T02:56:08.830Z,17.50
2022-08-25T02:58:37.010Z,17.54
2022-08-25T03:01:03.820Z,17.40
2022-08-25T03:03:31.335Z,17.40
2022-08-25T03:05:58.004Z,17.40
2022-08-25T03:08:25.415Z,17.37
2022-08-25T03:10:52.112Z,17.43
2022-08-25T03:13:18.815Z,17.29
2022-08-25T03:15:46.278Z,17.25
2022-08-25T03:18:16.178Z,17.22
2022-08-25T03:20:44.617Z,17.13
2022-08-25T03:23:12.076Z,17.16
2022-08-25T03:26:01.158Z,17.18
2022-08-25T03:28:31.251Z,17.21
2022-08-25T03:31:00.261Z,17.10
2022-08-25T03:33:28.312Z,17.09
2022-08-25T03:35:55.645Z,17.11
2022-08-25T03:38:26.234Z,17.06
2022-08-25T03:40:53.219Z,17.13
2022-08-25T03:43:21.329Z,17.15
2022-08-25T03:45:48.439Z,17.24
2022-08-25T03:48:16.211Z,17.30
2022-08-25T03:50:50.516Z,17.28
2022-08-25T03:53:18.942Z,17.24
2022-08-25T03:55:45.574Z,17.13
2022-08-25T03:58:12.467Z,17.27
2022-08-25T04:00:39.536Z,17.14
2022-08-25T04:03:06.434Z,17.16
2022-08-25T04:05:33.194Z,17.17
2022-08-25T04:08:01.993Z,17.14
2022-08-25T04:10:29.461Z,17.16
2022-08-25T04:12:57.092Z,17.12
2022-08-25T04:15:30.016Z,17.23
2022-08-25T04:17:58.941Z,17.27
2022-08-25T04:20:26.001Z,17.20
2022-08-25T04:22:52.745Z,17.19
2022-08-25T04:25:19.396Z,17.08
2022-08-25T04:27:46.050Z,17.19
2022-08-25T04:30:13.338Z,17.14
2022-08-25T04:32:40.016Z,17.02
2022-08-25T04:35:07.635Z,17.15
2022-08-25T04:37:34.822Z,17.16
2022-08-25T04:40:02.193Z,17.13
2022-08-25T04:42:28.805Z,17.11
2022-08-25T04:44:55.900Z,17.14
2022-08-25T04:47:22.765Z,17.17
2022-08-25T04:49:49.557Z,17.16
2022-08-25T04:52:16.315Z,17.22
2022-08-25T04:54:43.827Z,17.28
2022-08-25T04:57:10.784Z,17.27
2022-08-25T04:59:37.831Z,17.34
2022-08-25T05:02:06.719Z,17.44
2022-08-25T05:04:36.326Z,17.52
2022-08-25T05:07:04.268Z,17.53
2022-08-25T05:09:32.069Z,17.57
2022-08-25T05:11:59.443Z,17.55
2022-08-25T05:14:26.847Z,17.60
2022-08-25T05:16:55.107Z,17.76
2022-08-25T05:19:23.996Z,17.85
2022-08-25T05:21:51.423Z,17.89
2022-08-25T05:24:19.187Z,17.88
2022-08-25T05:26:46.027Z,17.74
2022-08-25T05:29:13.186Z,18.00
2022-08-25T05:31:43.949Z,18.08
2022-08-25T05:34:12.706Z,18.15
2022-08-25T05:36:43.358Z,18.22
2022-08-25T05:39:10.815Z,18.39
2022-08-25T05:41:38.123Z,18.15
2022-08-25T05:44:05.117Z,18.18
2022-08-25T05:46:31.984Z,18.21
2022-08-25T05:48:59.082Z,18.39
2022-08-25T05:51:26.374Z,18.52
2022-08-25T05:53:53.064Z,18.59
2022-08-25T05:56:21.009Z,18.75
2022-08-25T05:58:47.838Z,18.82
2022-08-25T06:01:45.477Z,18.95
2022-08-25T06:04:13.844Z,19.02
2022-08-25T06:06:41.288Z,19.12
2022-08-25T06:09:09.559Z,19.07
2022-08-25T06:11:38.086Z,19.17
2022-08-25T06:14:04.834Z,19.28
2022-08-25T06:16:31.939Z,19.45
2022-08-25T06:18:58.769Z,19.76
2022-08-25T06:21:25.698Z,19.80
2022-08-25T06:23:52.740Z,19.65
2022-08-25T06:26:21.205Z,19.92
2022-08-25T06:28:49.233Z,20.00
2022-08-25T06:31:16.033Z,20.25
2022-08-25T06:33:44.178Z,20.53
2022-08-25T06:36:10.759Z,21.45
2022-08-25T06:38:37.378Z,21.67
2022-08-25T06:41:05.990Z,21.83
2022-08-25T06:43:34.220Z,22.96
2022-08-25T06:46:10.216Z,23.89
2022-08-25T06:48:37.453Z,24.44
2022-08-25T06:51:08.693Z,24.01
2022-08-25T06:53:38.145Z,23.94
2022-08-25T06:56:06.753Z,23.95
2022-08-25T06:58:33.967Z,24.19
2022-08-25T07:01:19.645Z,24.65
2022-08-25T07:03:46.937Z,24.84
2022-08-25T07:06:14.887Z,25.04
2022-08-25T07:08:46.147Z,25.40
2022-08-25T07:11:16.087Z,25.77
2022-08-25T07:13:44.198Z,25.71
2022-08-25T07:16:15.407Z,25.90
2022-08-25T07:18:42.722Z,26.09
2022-08-25T07:21:12.438Z,26.29
2022-08-25T07:23:41.135Z,26.25
2022-08-25T07:29:13.601Z,25.54
2022-08-25T07:31:40.946Z,25.74
2022-08-25T07:34:27.065Z,25.85
2022-08-25T07:36:55.986Z,26.31
2022-08-25T07:39:24.334Z,26.29
2022-08-25T07:41:51.995Z,26.01
2022-08-25T07:44:19.927Z,25.90
2022-08-25T07:46:46.692Z,26.04
2022-08-25T07:49:16.729Z,25.70
2022-08-25T07:52:04.322Z,26.33
2022-08-25T07:54:33.966Z,26.69
2022-08-25T07:57:06.187Z,27.15
2022-08-25T07:59:39.985Z,27.30
2022-08-25T08:02:12.564Z,27.23
2022-08-25T08:04:49.522Z,27.17
2022-08-25T08:07:22.897Z,26.81
2022-08-25T08:09:56.421Z,26.81
2022-08-25T08:12:38.247Z,27.05
2022-08-25T08:15:05.301Z,26.80
2022-08-25T08:17:37.558Z,27.17
2022-08-25T08:20:09.062Z,27.31
2022-08-25T08:22:38.094Z,27.38
2022-08-25T08:25:06.337Z,27.67
2022-08-25T08:27:37.405Z,27.82
2022-08-25T08:30:06.207Z,27.88
2022-08-25T08:32:53.300Z,28.09
2022-08-25T08:35:19.418Z,27.82
2022-08-25T08:37:46.340Z,27.73
2022-08-25T08:40:18.532Z,28.01
2022-08-25T08:43:07.032Z,28.49
2022-08-25T08:45:53.732Z,28.44
2022-08-25T08:48:43.237Z,27.61
2022-08-25T08:51:32.770Z,27.70
2022-08-25T08:54:15.498Z,27.77
2022-08-25T08:56:48.146Z,28.09
2022-08-25T08:59:29.877Z,28.16
2022-08-25T09:02:00.424Z,28.20
2022-08-25T09:04:37.328Z,28.08
2022-08-25T09:07:11.113Z,28.01
2022-08-25T09:09:41.466Z,27.94
2022-08-25T09:12:34.111Z,28.11
2022-08-25T09:15:19.364Z,28.24
2022-08-25T09:18:07.046Z,27.91
2022-08-25T09:20:41.072Z,28.62
2022-08-25T09:23:21.671Z,28.85
2022-08-25T09:26:17.917Z,28.86
2022-08-25T09:28:53.401Z,28.80
2022-08-25T09:31:29.793Z,28.96
2022-08-25T09:34:00.759Z,28.62
2022-08-25T09:36:29.205Z,28.08
2022-08-25T09:38:55.789Z,28.01
2022-08-25T09:41:47.223Z,28.21
2022-08-25T09:44:27.427Z,28.59
2022-08-25T09:47:13.532Z,28.54
2022-08-25T09:49:42.943Z,28.47
2022-08-25T09:52:28.088Z,28.86
2022-08-25T09:54:56.841Z,29.28
2022-08-25T09:57:36.127Z,29.07
2022-08-25T10:00:18.573Z,28.79
2022-08-25T10:03:06.047Z,28.80
2022-08-25T10:05:36.587Z,28.66
2022-08-25T10:08:14.689Z,28.40
2022-08-25T10:10:55.294Z,28.33
2022-08-25T10:13:32.355Z,28.33
2022-08-25T10:16:30.830Z,27.77
2022-08-25T10:19:11.017Z,27.85
2022-08-25T10:21:40.419Z,28.12
2022-08-25T10:24:09.648Z,28.01
2022-08-25T10:26:42.986Z,28.13
2022-08-25T10:29:40.848Z,28.26
2022-08-25T10:32:27.666Z,28.34
2022-08-25T10:34:56.814Z,28.81
2022-08-25T10:37:45.016Z,29.12
2022-08-25T10:40:28.593Z,28.91
2022-08-25T10:43:19.984Z,28.66
2022-08-25T10:46:14.861Z,28.74
2022-08-25T10:48:58.375Z,28.50
2022-08-25T10:51:43.646Z,28.29
2022-08-25T10:54:13.374Z,28.36
2022-08-25T10:57:18.678Z,28.46
2022-08-25T11:00:03.538Z,28.64
2022-08-25T11:03:06.996Z,28.87
2022-08-25T11:05:40.250Z,29.02
2022-08-25T11:08:24.341Z,28.59
2022-08-25T11:11:02.505Z,29.12
2022-08-25T11:13:58.843Z,29.58
2022-08-25T11:17:12.781Z,29.79
2022-08-25T11:19:44.108Z,29.95
2022-08-25T11:22:19.577Z,30.05
2022-08-25T11:24:55.156Z,30.09
2022-08-25T11:27:24.351Z,30.10
2022-08-25T11:30:06.108Z,29.59
2022-08-25T11:32:35.671Z,29.33
2022-08-25T11:35:06.933Z,29.09
2022-08-25T11:37:34.255Z,28.68
2022-08-25T11:40:03.926Z,29.03
2022-08-25T11:42:59.048Z,28.84
2022-08-25T11:45:38.641Z,28.73
2022-08-25T11:48:12.770Z,28.62
2022-08-25T11:51:00.404Z,28.36
2022-08-25T11:53:30.908Z,28.68
2022-08-25T11:56:02.883Z,28.78
2022-08-25T11:58:49.801Z,28.76
2022-08-25T12:01:32.666Z,28.51
2022-08-25T12:04:33.809Z,28.90
2022-08-25T12:07:06.888Z,28.87
2022-08-25T12:09:55.020Z,29.16
2022-08-25T12:12:29.850Z,29.16
2022-08-25T12:15:34.105Z,28.88
2022-08-25T12:18:45.567Z,28.78
2022-08-25T12:21:15.217Z,29.12
2022-08-25T12:23:46.424Z,29.45
2022-08-25T12:26:29.561Z,29.50
2022-08-25T12:29:21.446Z,29.60
2022-08-25T12:31:59.125Z,29.33
2022-08-25T12:34:43.096Z,29.82
2022-08-25T12:37:20.726Z,29.83
2022-08-25T12:39:50.735Z,29.70
2022-08-25T12:42:45.010Z,29.66
2022-08-25T12:45:20.292Z,29.76
2022-08-25T12:47:49.498Z,29.66
2022-08-25T12:50:50.376Z,29.67
2022-08-25T12:53:39.680Z,29.83
2022-08-25T12:56:28.310Z,29.43
2022-08-25T12:59:23.744Z,29.62
2022-08-25T13:02:06.874Z,29.18
2022-08-25T13:05:11.428Z,29.18
2022-08-25T13:07:56.574Z,29.01
2022-08-25T13:10:35.150Z,29.17
2022-08-25T13:13:19.697Z,29.32
2022-08-25T13:15:58.002Z,29.59
2022-08-25T13:18:30.928Z,29.71
2022-08-25T13:21:16.101Z,29.82
2022-08-25T13:23:45.911Z,30.27
2022-08-25T13:26:23.539Z,30.15
2022-08-25T13:28:58.080Z,30.30
2022-08-25T13:31:29.262Z,30.13
2022-08-25T13:33:59.497Z,29.72
2022-08-25T13:36:54.035Z,29.77
2022-08-25T13:39:45.986Z,29.89
2022-08-25T13:42:17.447Z,29.97
2022-08-25T13:44:52.346Z,30.04
2022-08-25T13:47:44.961Z,30.17
2022-08-25T13:50:26.339Z,30.22
2022-08-25T13:52:54.751Z,30.13
2022-08-25T13:55:51.447Z,29.98
2022-08-25T13:58:38.638Z,30.23
2022-08-25T14:01:48.372Z,30.25
2022-08-25T14:04:31.380Z,30.33
2022-08-25T14:07:34.879Z,30.26
2022-08-25T14:10:29.733Z,30.18
2022-08-25T14:13:30.883Z,30.18
2022-08-25T14:16:09.897Z,30.36
2022-08-25T14:18:36.754Z,30.33
2022-08-25T14:21:10.806Z,30.31
2022-08-25T14:23:38.684Z,30.37
2022-08-25T14:26:06.417Z,30.36
2022-08-25T14:28:33.550Z,30.34
2022-08-25T14:31:05.430Z,30.16
2022-08-25T14:33:55.898Z,30.13
2022-08-25T14:36:22.709Z,29.95
2022-08-25T14:38:54.611Z,30.00
2022-08-25T14:41:23.856Z,30.05
2022-08-25T14:43:50.643Z,30.06
2022-08-25T14:46:21.438Z,30.19
2022-08-25T14:48:54.572Z,30.18
2022-08-25T14:51:23.534Z,30.11
2022-08-25T14:53:54.213Z,30.15
2022-08-25T14:56:21.943Z,30.03
2022-08-25T14:58:52.900Z,30.09
2022-08-25T15:01:29.038Z,30.20
2022-08-25T15:04:12.661Z,30.19
2022-08-25T15:06:43.791Z,29.92
2022-08-25T15:09:13.137Z,30.11
2022-08-25T15:11:52.253Z,30.25
2022-08-25T15:14:29.026Z,30.10
2022-08-25T15:17:00.498Z,30.14
2022-08-25T15:19:27.676Z,30.21
2022-08-25T15:21:57.711Z,30.22
2022-08-25T15:24:27.010Z,30.23
2022-08-25T15:26:57.067Z,30.32
2022-08-25T15:29:27.560Z,30.45
2022-08-25T15:31:54.635Z,30.44
2022-08-25T15:34:21.443Z,30.51
2022-08-25T15:36:49.566Z,30.42
2022-08-25T15:39:17.945Z,30.43
2022-08-25T15:41:52.487Z,30.42
2022-08-25T15:44:19.474Z,30.38
2022-08-25T15:46:49.481Z,30.29
2022-08-25T15:49:20.940Z,30.12
2022-08-25T15:51:50.569Z,29.81
2022-08-25T15:54:17.264Z,29.85
2022-08-25T15:56:44.467Z,29.98
2022-08-25T15:59:13.539Z,29.93
2022-08-25T16:01:41.618Z,29.77
2022-08-25T16:04:08.229Z,29.86
2022-08-25T16:06:34.905Z,29.65
2022-08-25T16:09:02.297Z,29.34
2022-08-25T16:11:30.817Z,29.41
2022-08-25T16:13:58.043Z,29.51
2022-08-25T16:16:26.753Z,29.64
2022-08-25T16:18:54.107Z,29.65
2022-08-25T16:21:25.656Z,29.75
2022-08-25T16:23:58.870Z,29.80
2022-08-25T16:26:26.258Z,29.64
2022-08-25T16:28:52.985Z,29.70
2022-08-25T16:31:19.799Z,29.82
2022-08-25T16:33:46.810Z,29.79
2022-08-25T16:36:20.042Z,29.81
2022-08-25T16:38:50.296Z,29.61
2022-08-25T16:41:24.792Z,29.70
2022-08-25T16:43:52.095Z,29.42
2022-08-25T16:46:21.035Z,29.44
2022-08-25T16:48:48.772Z,29.39
2022-08-25T16:51:19.297Z,29.34
2022-08-25T16:54:08.223Z,29.29
2022-08-25T16:56:37.044Z,29.21
2022-08-25T16:59:06.356Z,29.22
2022-08-25T17:01:35.470Z,29.12
2022-08-25T17:04:02.669Z,29.06
2022-08-25T17:06:33.877Z,28.97
2022-08-25T17:09:00.581Z,28.91
2022-08-25T17:11:30.216Z,28.79
2022-08-25T17:14:00.268Z,28.66
2022-08-25T17:16:30.300Z,28.58
2022-08-25T17:19:00.242Z,28.39
2022-08-25T17:21:32.991Z,28.27
2022-08-25T17:24:00.386Z,28.27
2022-08-25T17:26:29.121Z,28.35
2022-08-25T17:28:59.672Z,28.33
2022-08-25T17:31:27.086Z,28.13
2022-08-25T17:33:55.193Z,27.98
2022-08-25T17:36:27.129Z,27.87
2022-08-25T17:38:55.402Z,27.80
2022-08-25T17:41:24.052Z,27.68
2022-08-25T17:43:50.768Z,27.62
2022-08-25T17:46:17.760Z,27.55
2022-08-25T17:48:44.885Z,27.41
2022-08-25T17:51:12.367Z,27.25
2022-08-25T17:53:39.211Z,27.20
2022-08-25T17:56:10.760Z,27.08
2022-08-25T17:58:38.317Z,26.96
2022-08-25T18:01:06.224Z,26.92
2022-08-25T18:03:33.957Z,26.84
2022-08-25T18:06:00.994Z,26.77
2022-08-25T18:08:34.902Z,26.67
2022-08-25T18:11:03.410Z,26.69
2022-08-25T18:13:31.512Z,26.68
2022-08-25T18:15:58.774Z,26.59
2022-08-25T18:18:25.564Z,26.43
2022-08-25T18:20:55.272Z,26.37
2022-08-25T18:23:21.925Z,26.24
2022-08-25T18:25:49.429Z,26.12
2022-08-25T18:28:16.604Z,26.12
2022-08-25T18:30:43.340Z,25.97
2022-08-25T18:33:10.601Z,25.95
2022-08-25T18:35:37.960Z,25.90
2022-08-25T18:38:24.649Z,25.96
2022-08-25T18:40:57.662Z,25.94
2022-08-25T18:43:24.660Z,25.82
2022-08-25T18:45:51.565Z,25.82
2022-08-25T18:48:23.748Z,25.68
2022-08-25T18:50:54.802Z,25.60
2022-08-25T18:53:30.529Z,25.50
2022-08-25T18:56:05.222Z,25.43
2022-08-25T18:58:32.009Z,25.38
2022-08-25T19:01:00.866Z,25.34
2022-08-25T19:03:27.910Z,25.32
2022-08-25T19:05:57.573Z,25.26
2022-08-25T19:08:24.901Z,25.22
2022-08-25T19:10:54.255Z,25.26
2022-08-25T19:13:22.532Z,25.13
2022-08-25T19:15:50.909Z,25.10
2022-08-25T19:18:19.304Z,25.08
2022-08-25T19:20:52.943Z,25.02
2022-08-25T19:23:19.859Z,24.94
2022-08-25T19:25:46.706Z,24.89
2022-08-25T19:28:13.823Z,24.81
2022-08-25T19:30:49.941Z,24.85
2022-08-25T19:33:42.366Z,24.88
2022-08-25T19:36:08.495Z,24.77
2022-08-25T19:38:36.742Z,24.74
2022-08-25T19:41:10.595Z,24.49
2022-08-25T19:43:50.667Z,24.47
2022-08-25T19:46:25.644Z,24.35
2022-08-25T19:48:59.973Z,24.26
2022-08-25T19:51:28.874Z,24.29
2022-08-25T19:53:58.945Z,24.23
2022-08-25T19:56:28.277Z,24.19
2022-08-25T19:58:55.555Z,24.10
2022-08-25T20:01:22.177Z,24.06
2022-08-25T20:03:48.928Z,24.03
2022-08-25T20:06:16.284Z,23.93
2022-08-25T20:08:43.477Z,23.76
2022-08-25T20:11:10.231Z,23.83
2022-08-25T20:13:37.129Z,23.89
2022-08-25T20:16:04.300Z,23.88
2022-08-25T20:18:32.470Z,23.79
2022-08-25T20:20:59.210Z,23.68
2022-08-25T20:23:44.762Z,23.67
2022-08-25T20:26:11.390Z,23.49
2022-08-25T20:28:42.038Z,23.56
2022-08-25T20:31:09.375Z,23.50
2022-08-25T20:33:36.171Z,23.57
2022-08-25T20:36:04.875Z,23.54
2022-08-25T20:38:32.241Z,23.40
2022-08-25T20:41:00.836Z,23.40
2022-08-25T20:43:30.298Z,23.42
2022-08-25T20:46:04.952Z,23.27
2022-08-25T20:48:32.205Z,23.00
2022-08-25T20:50:58.963Z,23.10
2022-08-25T20:53:26.169Z,23.04
2022-08-25T20:55:52.902Z,23.04
2022-08-25T20:58:20.351Z,22.94
2022-08-25T21:00:47.453Z,23.02
2022-08-25T21:03:14.045Z,22.99
2022-08-25T21:05:42.785Z,22.81
2022-08-25T21:08:10.439Z,22.79
2022-08-25T21:10:37.602Z,22.69
2022-08-25T21:13:04.263Z,22.75
2022-08-25T21:15:31.509Z,22.63
2022-08-25T21:17:58.368Z,22.54
2022-08-25T21:20:26.369Z,22.49
2022-08-25T21:22:53.488Z,22.35
2022-08-25T21:25:21.747Z,22.50
2022-08-25T21:27:49.298Z,22.53
2022-08-25T21:30:16.760Z,22.52
2022-08-25T21:32:52.922Z,22.41
2022-08-25T21:35:22.405Z,22.22
2022-08-25T21:37:53.228Z,22.17
2022-08-25T21:40:21.498Z,21.99
2022-08-25T21:42:48.898Z,22.22
2022-08-25T21:45:15.693Z,22.21
2022-08-25T21:47:42.780Z,22.19
2022-08-25T21:50:13.119Z,22.11
2022-08-25T21:52:39.768Z,22.12
2022-08-25T21:55:15.841Z,22.14
2022-08-25T21:57:43.345Z,22.17
2022-08-25T22:00:11.628Z,22.10
2022-08-25T22:02:38.591Z,21.96
2022-08-25T22:05:09.356Z,21.93
2022-08-25T22:07:41.591Z,21.88
2022-08-25T22:10:09.522Z,21.76
2022-08-25T22:12:44.025Z,21.83
2022-08-25T22:15:13.572Z,21.79
2022-08-25T22:17:40.649Z,21.58
2022-08-25T22:20:08.882Z,21.58
2022-08-25T22:22:35.781Z,21.68
2022-08-25T22:25:02.782Z,21.53
2022-08-25T22:27:30.387Z,21.53
2022-08-25T22:34:51.333Z,21.30
2022-08-25T22:37:18.204Z,21.32
2022-08-25T22:39:45.735Z,21.44
2022-08-25T22:42:12.590Z,21.49
2022-08-25T22:44:40.065Z,21.33
2022-08-25T22:47:07.694Z,21.35
2022-08-25T22:49:35.518Z,21.32
2022-08-25T22:52:02.558Z,21.21
2022-08-25T22:54:29.971Z,21.18
2022-08-25T22:57:05.930Z,20.94
2022-08-25T22:59:33.331Z,21.02
2022-08-25T23:02:02.377Z,21.02
2022-08-25T23:04:29.078Z,20.91
2022-08-25T23:06:56.086Z,20.89
2022-08-25T23:09:23.600Z,20.90
2022-08-25T23:11:51.707Z,20.85
2022-08-25T23:14:18.946Z,20.83
2022-08-25T23:16:45.642Z,20.88
2022-08-25T23:19:13.867Z,20.81
2022-08-25T23:22:00.461Z,20.81
2022-08-25T23:24:29.844Z,20.83
2022-08-25T23:27:01.974Z,20.82
2022-08-25T23:29:29.074Z,20.56
2022-08-25T23:31:57.290Z,20.71
2022-08-25T23:34:24.803Z,20.63
2022-08-25T23:36:51.725Z,20.62
2022-08-25T23:39:18.397Z,20.58
2022-08-25T23:41:48.288Z,20.63
2022-08-25T23:44:17.303Z,20.58
2022-08-25T23:46:45.342Z,20.34
2022-08-25T23:49:14.225Z,20.45
2022-08-25T23:51:44.990Z,20.36
2022-08-25T23:54:12.834Z,20.20
2022-08-25T23:56:44.497Z,20.23
2022-08-25T23:59:13.159Z,20.28
